Time;durP1;ratioP1;P1;durP2;ratioP2;P2;SDS_P1;SDS_P2;PMS_P1;PMS_P2;Temp;Humidity;BMP_temperature;BMP_pressure;BME280_temperature;BME280_humidity;BME280_pressure;Samples;Min_cycle;Max_cycle;Signal;HPM_P1;HPM_P2
2023/04/18 00:01:39;;;;;;;4.22;2.08;;;;;;;;;;4956223;29;20114;-76
2023/04/18 00:04:24;;;;;;;4.25;2.50;;;;;;;;;;4956157;29;20043;-76
2023/04/18 00:07:11;;;;;;;3.70;2.30;;;;;;;;;;4955652;29;20396;-76
2023/04/18 00:09:57;;;;;;;2.90;2.10;;;;;;;;;;4955786;29;20389;-76
2023/04/18 00:12:42;;;;;;;2.28;1.88;;;;;;;;;;4955583;29;20485;-76
2023/04/18 00:15:29;;;;;;;2.85;2.10;;;;;;;;;;4956174;29;20039;-76
2023/04/18 00:18:16;;;;;;;3.53;2.35;;;;;;;;;;4955651;29;20039;-76
2023/04/18 00:21:02;;;;;;;5.70;2.25;;;;;;;;;;4955728;29;20389;-76
2023/04/18 00:23:46;;;;;;;3.03;2.33;;;;;;;;;;4955458;29;20039;-76
2023/04/18 00:26:32;;;;;;;4.60;2.70;;;;;;;;;;4955472;29;20047;-76
2023/04/18 00:29:18;;;;;;;5.22;2.55;;;;;;;;;;4947803;29;20043;-76
2023/04/18 00:32:04;;;;;;;3.50;2.20;;;;;;;;;;4961126;29;20051;-76
2023/04/18 00:34:49;;;;;;;4.95;2.13;;;;;;;;;;4960739;28;20073;-76
2023/04/18 00:37:34;;;;;;;2.72;2.20;;;;;;;;;;4955350;29;20051;-76
2023/04/18 00:40:20;;;;;;;4.35;2.47;;;;;;;;;;4956558;29;20047;-76
2023/04/18 00:43:06;;;;;;;4.32;2.35;;;;;;;;;;4934506;29;20043;-77
2023/04/18 00:45:52;;;;;;;3.72;2.42;;;;;;;;;;4947793;29;20043;-76
2023/04/18 00:48:38;;;;;;;4.43;2.88;;;;;;;;;;4947115;29;20397;-77
2023/04/18 00:51:24;;;;;;;4.05;3.03;;;;;;;;;;4955445;29;20039;-77
2023/04/18 00:54:11;;;;;;;4.50;2.97;;;;;;;;;;4948453;29;20397;-76
2023/04/18 00:56:57;;;;;;;3.53;2.45;;;;;;;;;;4947771;29;20043;-76
2023/04/18 00:59:42;;;;;;;4.45;2.72;;;;;;;;;;4944508;29;20051;-76
2023/04/18 01:02:30;;;;;;;3.40;2.30;;;;;;;;;;4941316;29;20055;-77
2023/04/18 01:05:17;;;;;;;4.25;2.63;;;;;;;;;;4947625;29;20055;-76
2023/04/18 01:08:02;;;;;;;3.65;2.28;;;;;;;;;;4951246;28;20039;-76
2023/04/18 01:10:48;;;;;;;4.68;2.65;;;;;;;;;;4959123;29;20043;-78
2023/04/18 01:13:34;;;;;;;3.58;2.15;;;;;;;;;;4964073;28;20393;-75
2023/04/18 01:16:22;;;;;;;2.40;2.13;;;;;;;;;;4958678;29;20047;-75
2023/04/18 01:19:09;;;;;;;2.72;2.05;;;;;;;;;;4959196;29;20047;-76
2023/04/18 01:21:54;;;;;;;2.70;1.80;;;;;;;;;;4958684;29;20040;-77
2023/04/18 01:24:40;;;;;;;4.72;1.92;;;;;;;;;;4958369;29;20047;-76
2023/04/18 01:27:27;;;;;;;3.47;1.88;;;;;;;;;;4958636;29;20497;-77
2023/04/18 01:30:12;;;;;;;2.17;1.90;;;;;;;;;;4950583;28;20042;-76
2023/04/18 01:33:03;;;;;;;3.15;2.05;;;;;;;;;;4958716;29;20043;-77
2023/04/18 01:35:48;;;;;;;3.13;1.90;;;;;;;;;;4958213;29;20035;-76
2023/04/18 01:38:34;;;;;;;4.10;2.00;;;;;;;;;;4958029;29;20412;-77
2023/04/18 01:41:19;;;;;;;3.40;2.15;;;;;;;;;;4963503;28;20051;-77
2023/04/18 01:44:06;;;;;;;2.80;2.10;;;;;;;;;;4949913;28;20055;-77
2023/04/18 01:46:52;;;;;;;3.78;2.00;;;;;;;;;;4950025;28;20047;-77
2023/04/18 01:49:38;;;;;;;2.88;2.00;;;;;;;;;;4958523;29;20055;-77
2023/04/18 01:52:23;;;;;;;3.83;2.50;;;;;;;;;;4956935;29;20051;-77
2023/04/18 01:55:09;;;;;;;3.47;2.15;;;;;;;;;;4957837;29;20043;-77
2023/04/18 01:57:55;;;;;;;4.25;2.45;;;;;;;;;;4947471;29;20477;-77
2023/04/18 02:00:40;;;;;;;4.60;2.42;;;;;;;;;;4943377;29;20039;-77
2023/04/18 02:03:26;;;;;;;3.78;2.35;;;;;;;;;;4957445;29;20043;-76
2023/04/18 02:06:11;;;;;;;6.20;2.45;;;;;;;;;;4949692;28;20497;-76
2023/04/18 02:08:57;;;;;;;3.85;2.30;;;;;;;;;;4949777;28;20051;-76
2023/04/18 02:11:43;;;;;;;3.58;2.40;;;;;;;;;;4936598;28;20047;-78
2023/04/18 02:14:31;;;;;;;3.90;2.35;;;;;;;;;;4944632;28;20047;-77
2023/04/18 02:17:22;;;;;;;3.53;2.33;;;;;;;;;;4958003;29;20043;-77
2023/04/18 02:20:08;;;;;;;2.92;2.08;;;;;;;;;;4956886;29;20043;-77
2023/04/18 02:22:53;;;;;;;2.53;1.95;;;;;;;;;;4950521;28;20036;-76
2023/04/18 02:25:39;;;;;;;3.35;2.05;;;;;;;;;;4953173;29;20048;-78
2023/04/18 02:28:25;;;;;;;6.35;2.50;;;;;;;;;;4957275;29;20052;-78
2023/04/18 02:31:13;;;;;;;5.22;2.40;;;;;;;;;;4949477;28;20055;-78
2023/04/18 02:33:58;;;;;;;4.03;2.38;;;;;;;;;;4957562;29;20051;-78
2023/04/18 02:36:44;;;;;;;4.03;2.20;;;;;;;;;;4957397;29;20059;-78
2023/04/18 02:39:30;;;;;;;3.30;2.33;;;;;;;;;;4958077;29;20497;-78
2023/04/18 02:42:15;;;;;;;5.68;2.30;;;;;;;;;;4962329;28;20425;-78
2023/04/18 02:45:01;;;;;;;3.10;2.42;;;;;;;;;;4957055;29;20047;-78
2023/04/18 02:47:46;;;;;;;3.80;2.10;;;;;;;;;;4949404;28;20417;-78
2023/04/18 02:50:35;;;;;;;2.53;1.90;;;;;;;;;;4962877;28;20054;-78
2023/04/18 02:53:22;;;;;;;4.65;2.28;;;;;;;;;;4949067;28;20044;-78
2023/04/18 02:56:15;;;;;;;2.78;1.85;;;;;;;;;;4949116;28;20047;-78
2023/04/18 02:59:19;;;;;;;3.75;2.45;;;;;;;;;;4959072;29;20055;-77
2023/04/18 03:02:23;;;;;;;6.78;2.53;;;;;;;;;;4956754;29;20039;-77
2023/04/18 03:05:13;;;;;;;5.25;2.72;;;;;;;;;;4965448;28;20043;-77
2023/04/18 03:07:59;;;;;;;3.95;2.88;;;;;;;;;;4949785;28;20047;-78
2023/04/18 03:10:45;;;;;;;4.53;3.00;;;;;;;;;;4953194;28;20473;-77
2023/04/18 03:13:32;;;;;;;6.03;2.88;;;;;;;;;;4948973;28;20051;-77
2023/04/18 03:16:18;;;;;;;5.65;2.90;;;;;;;;;;4949868;28;20047;-77
2023/04/18 03:19:04;;;;;;;3.88;2.65;;;;;;;;;;4961037;29;20039;-76
2023/04/18 03:21:50;;;;;;;4.88;2.97;;;;;;;;;;4956333;29;20039;-77
2023/04/18 03:24:35;;;;;;;4.10;3.20;;;;;;;;;;4956269;29;20043;-77
2023/04/18 03:27:23;;;;;;;8.63;3.22;;;;;;;;;;4952687;28;20039;-76
2023/04/18 03:30:09;;;;;;;3.78;2.88;;;;;;;;;;4956775;28;20051;-77
2023/04/18 03:32:55;;;;;;;3.65;2.90;;;;;;;;;;4961592;28;20393;-77
2023/04/18 03:35:41;;;;;;;4.07;2.90;;;;;;;;;;4956777;29;20163;-77
2023/04/18 03:38:26;;;;;;;5.25;2.75;;;;;;;;;;4947817;28;20047;-77
2023/04/18 03:41:12;;;;;;;3.33;2.38;;;;;;;;;;4948416;28;20055;-77
2023/04/18 03:43:57;;;;;;;4.57;2.92;;;;;;;;;;4948594;28;20039;-77
2023/04/18 03:46:43;;;;;;;3.40;2.55;;;;;;;;;;4952238;28;20043;-77
2023/04/18 03:49:29;;;;;;;4.20;2.53;;;;;;;;;;4956239;29;20039;-77
2023/04/18 03:52:14;;;;;;;3.75;2.65;;;;;;;;;;4961257;29;20055;-77
2023/04/18 03:55:00;;;;;;;2.88;2.50;;;;;;;;;;4934401;28;20055;-77
2023/04/18 03:57:50;;;;;;;3.38;2.60;;;;;;;;;;4952927;28;20485;-77
2023/04/18 04:00:43;;;;;;;4.95;2.95;;;;;;;;;;4941552;29;20099;-77
2023/04/18 04:03:30;;;;;;;3.55;2.40;;;;;;;;;;4951853;28;20047;-77
2023/04/18 04:06:16;;;;;;;3.03;2.50;;;;;;;;;;4949228;28;20040;-77
2023/04/18 04:09:03;;;;;;;3.88;2.67;;;;;;;;;;4963999;28;20039;-78
2023/04/18 04:11:49;;;;;;;3.72;2.70;;;;;;;;;;4951644;28;20489;-77
2023/04/18 04:14:35;;;;;;;3.08;2.50;;;;;;;;;;4952366;28;20040;-77
2023/04/18 04:17:20;;;;;;;3.92;2.58;;;;;;;;;;4951158;28;20055;-77
2023/04/18 04:20:07;;;;;;;4.90;2.65;;;;;;;;;;4955919;29;20043;-77
2023/04/18 04:22:54;;;;;;;5.50;2.65;;;;;;;;;;4950677;29;20039;-77
2023/04/18 04:25:41;;;;;;;3.45;2.42;;;;;;;;;;4947494;28;20496;-77
2023/04/18 04:28:35;;;;;;;3.15;2.10;;;;;;;;;;4947539;29;20055;-77
2023/04/18 04:31:22;;;;;;;5.28;2.25;;;;;;;;;;4950524;29;20051;-77
2023/04/18 04:34:08;;;;;;;2.03;1.83;;;;;;;;;;4950536;29;20051;-77
2023/04/18 04:36:54;;;;;;;3.58;2.08;;;;;;;;;;4947661;28;20051;-77
2023/04/18 04:39:41;;;;;;;4.20;2.95;;;;;;;;;;4955405;29;20051;-77
2023/04/18 04:42:52;;;;;;;2.60;2.15;;;;;;;;;;4957352;28;20043;-77
2023/04/18 04:45:44;;;;;;;3.90;2.30;;;;;;;;;;4965397;28;20043;-79
2023/04/18 04:48:30;;;;;;;2.75;2.20;;;;;;;;;;4944268;28;20039;-77
2023/04/18 04:51:15;;;;;;;3.17;2.30;;;;;;;;;;4953784;28;20047;-77
2023/04/18 04:54:01;;;;;;;3.45;2.20;;;;;;;;;;4952540;28;20175;-77
2023/04/18 04:56:46;;;;;;;4.20;2.30;;;;;;;;;;4951184;28;20051;-77
2023/04/18 04:59:32;;;;;;;3.10;2.30;;;;;;;;;;4949133;29;20051;-77
2023/04/18 05:02:21;;;;;;;3.40;2.30;;;;;;;;;;4953798;28;20043;-77
2023/04/18 05:05:07;;;;;;;4.30;2.65;;;;;;;;;;4958953;29;20047;-78
2023/04/18 05:07:52;;;;;;;3.47;2.53;;;;;;;;;;4958999;29;20489;-76
2023/04/18 05:10:38;;;;;;;5.90;2.85;;;;;;;;;;4958731;29;20051;-77
2023/04/18 05:13:23;;;;;;;3.67;2.45;;;;;;;;;;4958635;29;20047;-77
2023/04/18 05:16:09;;;;;;;3.95;2.70;;;;;;;;;;4958553;29;20039;-77
2023/04/18 05:18:54;;;;;;;3.20;2.50;;;;;;;;;;4963926;29;20039;-77
2023/04/18 05:21:40;;;;;;;3.00;2.50;;;;;;;;;;4959617;29;20043;-77
2023/04/18 05:24:26;;;;;;;3.15;2.08;;;;;;;;;;4961929;29;20509;-77
2023/04/18 05:27:13;;;;;;;3.95;2.00;;;;;;;;;;4963330;29;20047;-77
2023/04/18 05:29:57;;;;;;;2.28;1.67;;;;;;;;;;4960088;29;20481;-77
2023/04/18 05:32:43;;;;;;;2.63;2.03;;;;;;;;;;4960182;29;20043;-77
2023/04/18 05:35:29;;;;;;;4.40;2.30;;;;;;;;;;4961387;29;20048;-77
2023/04/18 05:38:15;;;;;;;2.88;2.20;;;;;;;;;;4958093;29;20039;-77
2023/04/18 05:41:01;;;;;;;2.92;2.05;;;;;;;;;;4958135;29;20051;-77
2023/04/18 05:43:46;;;;;;;7.20;4.15;;;;;;;;;;4957589;29;20039;-77
2023/04/18 05:46:32;;;;;;;4.55;3.13;;;;;;;;;;4961892;29;20051;-77
2023/04/18 05:49:18;;;;;;;3.97;2.70;;;;;;;;;;4961293;29;20051;-77
2023/04/18 05:52:04;;;;;;;5.90;2.90;;;;;;;;;;4959423;29;20043;-77
2023/04/18 05:54:51;;;;;;;6.18;3.55;;;;;;;;;;4960630;29;20043;-77
2023/04/18 05:57:37;;;;;;;7.75;3.70;;;;;;;;;;4958866;29;20051;-77
2023/04/18 06:00:22;;;;;;;6.25;4.50;;;;;;;;;;4958370;29;20497;-77
2023/04/18 06:03:08;;;;;;;3.67;2.72;;;;;;;;;;4960024;29;20048;-78
2023/04/18 06:05:53;;;;;;;4.65;2.33;;;;;;;;;;4959042;29;20405;-77
2023/04/18 06:08:39;;;;;;;15.85;8.18;;;;;;;;;;4960437;29;20047;-77
2023/04/18 06:11:25;;;;;;;10.73;7.28;;;;;;;;;;4957584;29;20504;-77
2023/04/18 06:14:10;;;;;;;4.57;3.33;;;;;;;;;;4957608;29;20039;-77
2023/04/18 06:16:56;;;;;;;4.97;3.70;;;;;;;;;;4958128;29;20043;-78
2023/04/18 06:19:41;;;;;;;7.93;4.80;;;;;;;;;;4961829;29;20035;-77
2023/04/18 06:22:27;;;;;;;4.68;2.90;;;;;;;;;;4957169;29;20039;-77
2023/04/18 06:25:12;;;;;;;4.70;2.90;;;;;;;;;;4961192;29;20055;-77
2023/04/18 06:27:58;;;;;;;3.97;2.83;;;;;;;;;;4953114;28;20043;-77
2023/04/18 06:30:44;;;;;;;3.45;2.50;;;;;;;;;;4960551;29;20043;-78
2023/04/18 06:33:29;;;;;;;6.10;4.38;;;;;;;;;;4953602;29;20055;-77
2023/04/18 06:36:15;;;;;;;4.88;3.00;;;;;;;;;;4960215;29;20035;-77
2023/04/18 06:39:00;;;;;;;12.43;5.20;;;;;;;;;;4958219;29;20051;-77
2023/04/18 06:41:48;;;;;;;4.70;3.60;;;;;;;;;;4957746;29;20047;-77
2023/04/18 06:44:44;;;;;;;5.28;3.15;;;;;;;;;;4961970;28;20039;-77
2023/04/18 06:47:30;;;;;;;5.18;2.30;;;;;;;;;;4943935;29;20043;-77
2023/04/18 06:50:16;;;;;;;4.38;2.60;;;;;;;;;;4958732;29;20051;-76
2023/04/18 06:53:01;;;;;;;4.90;2.25;;;;;;;;;;4957706;29;20497;-79
2023/04/18 06:55:47;;;;;;;3.03;2.03;;;;;;;;;;4957995;29;20051;-77
2023/04/18 06:58:32;;;;;;;4.53;3.28;;;;;;;;;;4958187;29;20043;-77
2023/04/18 07:01:18;;;;;;;3.30;2.42;;;;;;;;;;4959237;29;20051;-77
2023/04/18 07:04:04;;;;;;;4.10;2.95;;;;;;;;;;4956629;28;20051;-77
2023/04/18 07:06:50;;;;;;;2.45;1.80;;;;;;;;;;4956805;29;20039;-76
2023/04/18 07:09:35;;;;;;;3.72;1.90;;;;;;;;;;4958964;29;20405;-77
2023/04/18 07:12:21;;;;;;;1.88;1.65;;;;;;;;;;4959911;29;20405;-77
2023/04/18 07:15:07;;;;;;;4.95;2.75;;;;;;;;;;4959622;29;20051;-77
2023/04/18 07:17:52;;;;;;;7.15;3.17;;;;;;;;;;4959831;29;20408;-79
2023/04/18 07:20:38;;;;;;;2.78;1.88;;;;;;;;;;4961117;29;20043;-78
2023/04/18 07:23:24;;;;;;;4.35;3.00;;;;;;;;;;4960195;29;20043;-78
2023/04/18 07:26:12;;;;;;;4.20;2.92;;;;;;;;;;4960500;29;20051;-78
2023/04/18 07:28:58;;;;;;;20.08;8.75;;;;;;;;;;4956110;29;20504;-79
2023/04/18 07:31:46;;;;;;;7.10;3.55;;;;;;;;;;4956731;29;20039;-79
2023/04/18 07:34:32;;;;;;;10.70;5.53;;;;;;;;;;4956242;29;20050;-79
2023/04/18 07:37:20;;;;;;;9.02;5.35;;;;;;;;;;4956300;29;20035;-78
2023/04/18 07:40:05;;;;;;;8.07;4.45;;;;;;;;;;4956108;29;20043;-78
2023/04/18 07:42:51;;;;;;;4.03;2.55;;;;;;;;;;4957616;29;20043;-78
2023/04/18 07:45:37;;;;;;;1.55;1.15;;;;;;;;;;4956479;29;20055;-76
2023/04/18 07:48:26;;;;;;;2.65;1.80;;;;;;;;;;4955713;29;20051;-79
2023/04/18 07:51:11;;;;;;;4.88;3.38;;;;;;;;;;4955967;29;20055;-79
2023/04/18 07:53:57;;;;;;;5.18;4.18;;;;;;;;;;4956170;29;20051;-79
2023/04/18 07:56:43;;;;;;;4.35;3.15;;;;;;;;;;4955617;29;20047;-76
2023/04/18 07:59:28;;;;;;;6.38;3.58;;;;;;;;;;4955552;29;20039;-79
2023/04/18 08:02:15;;;;;;;5.40;2.50;;;;;;;;;;4957087;29;20043;-78
2023/04/18 08:04:59;;;;;;;5.93;3.55;;;;;;;;;;4955921;29;20043;-78
2023/04/18 08:07:45;;;;;;;3.65;2.60;;;;;;;;;;4958562;29;20043;-77
2023/04/18 08:10:30;;;;;;;4.22;2.70;;;;;;;;;;4956767;29;20051;-78
2023/04/18 08:13:16;;;;;;;6.65;3.30;;;;;;;;;;4957873;29;20047;-78
2023/04/18 08:16:02;;;;;;;3.90;2.80;;;;;;;;;;4956222;29;20051;-79
2023/04/18 08:18:47;;;;;;;8.57;4.60;;;;;;;;;;4956248;29;20039;-77
2023/04/18 08:21:33;;;;;;;14.55;8.90;;;;;;;;;;4960004;29;20524;-77
2023/04/18 08:24:19;;;;;;;5.95;4.50;;;;;;;;;;4959157;29;20051;-78
2023/04/18 08:27:04;;;;;;;4.80;2.78;;;;;;;;;;4959293;29;20047;-77
2023/04/18 08:29:49;;;;;;;4.78;2.60;;;;;;;;;;4959125;29;20043;-75
2023/04/18 08:32:35;;;;;;;4.88;2.80;;;;;;;;;;4955578;29;20393;-76
2023/04/18 08:35:21;;;;;;;8.75;4.00;;;;;;;;;;4955098;29;20047;-78
2023/04/18 08:38:07;;;;;;;10.55;7.20;;;;;;;;;;4956363;29;20051;-76
2023/04/18 08:40:52;;;;;;;9.15;5.53;;;;;;;;;;4955398;29;20043;-77
2023/04/18 08:43:38;;;;;;;13.18;7.75;;;;;;;;;;4956424;29;20413;-77
2023/04/18 08:46:23;;;;;;;15.10;7.90;;;;;;;;;;4955275;29;20498;-76
2023/04/18 08:49:09;;;;;;;12.77;6.57;;;;;;;;;;4955063;29;20048;-78
2023/04/18 08:51:56;;;;;;;41.33;24.67;;;;;;;;;;4955269;29;20047;-79
2023/04/18 08:54:46;;;;;;;4.28;2.88;;;;;;;;;;4953460;29;20051;-81
2023/04/18 08:57:32;;;;;;;2.38;1.75;;;;;;;;;;4953132;29;20043;-77
2023/04/18 09:00:17;;;;;;;15.07;8.35;;;;;;;;;;4954173;29;20497;-78
2023/04/18 09:03:03;;;;;;;33.30;14.75;;;;;;;;;;4954893;29;20043;-80
2023/04/18 09:06:17;;;;;;;2.63;2.08;;;;;;;;;;4955055;29;20043;-80
2023/04/18 09:09:04;;;;;;;8.48;4.95;;;;;;;;;;4940712;29;20047;-80
2023/04/18 09:11:51;;;;;;;5.45;3.65;;;;;;;;;;4954891;29;20047;-79
2023/04/18 09:14:41;;;;;;;3.42;2.17;;;;;;;;;;4954912;29;20043;-79
2023/04/18 09:17:31;;;;;;;3.40;2.45;;;;;;;;;;4955229;29;20043;-79
2023/04/18 09:20:40;;;;;;;64.70;28.40;;;;;;;;;;4954863;29;20040;-80
2023/04/18 09:23:24;;;;;;;5.53;3.22;;;;;;;;;;4953116;29;20047;-78
2023/04/18 09:26:10;;;;;;;1.80;1.55;;;;;;;;;;4953549;29;20052;-80
2023/04/18 09:28:55;;;;;;;2.97;2.40;;;;;;;;;;4955720;28;20043;-80
2023/04/18 09:32:00;;;;;;;4.35;2.50;;;;;;;;;;4958041;29;20043;-79
2023/04/18 09:34:46;;;;;;;8.13;4.20;;;;;;;;;;4957396;29;20047;-79
2023/04/18 09:37:31;;;;;;;3.53;2.28;;;;;;;;;;4957738;29;20051;-80
2023/04/18 09:40:18;;;;;;;4.68;2.38;;;;;;;;;;4957857;29;20489;-80
2023/04/18 09:43:21;;;;;;;3.50;2.80;;;;;;;;;;4942858;29;20043;-78
2023/04/18 09:46:08;;;;;;;5.50;3.40;;;;;;;;;;4957763;29;20055;-79
2023/04/18 09:48:54;;;;;;;2.83;2.10;;;;;;;;;;4957932;29;20055;-79
2023/04/18 09:51:42;;;;;;;3.83;2.10;;;;;;;;;;4957719;29;20051;-80
2023/04/18 09:54:31;;;;;;;5.10;2.38;;;;;;;;;;4957744;29;20051;-79
2023/04/18 09:57:17;;;;;;;3.45;1.90;;;;;;;;;;4964526;28;20421;-79
2023/04/18 10:00:16;;;;;;;2.88;2.00;;;;;;;;;;4957475;29;20051;-85
2023/04/18 10:03:08;;;;;;;8.10;5.75;;;;;;;;;;4957132;29;20047;-86
2023/04/18 10:05:54;;;;;;;5.20;2.85;;;;;;;;;;4942182;29;20063;-80
2023/04/18 10:08:40;;;;;;;7.50;4.10;;;;;;;;;;4955930;29;20059;-80
2023/04/18 10:11:26;;;;;;;3.72;2.85;;;;;;;;;;4955549;29;20051;-80
2023/04/18 10:14:14;;;;;;;2.78;2.28;;;;;;;;;;4955928;29;20051;-80
2023/04/18 10:17:00;;;;;;;3.25;2.42;;;;;;;;;;4957228;29;20393;-79
2023/04/18 10:19:46;;;;;;;2.83;2.17;;;;;;;;;;4957681;29;20047;-80
2023/04/18 10:22:33;;;;;;;6.10;3.30;;;;;;;;;;4957587;29;20043;-80
2023/04/18 10:25:37;;;;;;;5.15;2.30;;;;;;;;;;4958744;29;20059;-81
2023/04/18 10:28:23;;;;;;;5.80;4.43;;;;;;;;;;4957772;29;20047;-79
2023/04/18 10:31:08;;;;;;;6.68;3.97;;;;;;;;;;4958930;29;20047;-79
2023/04/18 10:33:56;;;;;;;2.13;1.45;;;;;;;;;;4957845;29;20055;-80
2023/04/18 10:37:02;;;;;;;1.55;1.27;;;;;;;;;;4959300;29;20385;-79
2023/04/18 10:39:56;;;;;;;4.20;2.75;;;;;;;;;;4958231;28;20039;-80
2023/04/18 10:42:51;;;;;;;8.43;3.73;;;;;;;;;;4956250;29;20047;-81
2023/04/18 10:45:37;;;;;;;3.30;2.03;;;;;;;;;;4959018;29;20080;-79
2023/04/18 10:48:24;;;;;;;3.90;2.85;;;;;;;;;;4956824;29;20044;-79
2023/04/18 10:51:13;;;;;;;2.53;1.90;;;;;;;;;;4955869;29;20441;-80
2023/04/18 10:53:59;;;;;;;2.97;2.30;;;;;;;;;;4957002;29;20054;-80
2023/04/18 10:56:56;;;;;;;2.53;1.80;;;;;;;;;;4956598;29;20043;-80
2023/04/18 10:59:43;;;;;;;9.32;5.55;;;;;;;;;;4956116;29;20044;-80
2023/04/18 11:02:31;;;;;;;3.13;1.75;;;;;;;;;;4956430;29;20051;-79
2023/04/18 11:05:23;;;;;;;1.77;1.48;;;;;;;;;;4956067;29;20059;-79
2023/04/18 11:08:23;;;;;;;2.08;1.58;;;;;;;;;;4957334;29;20405;-79
2023/04/18 11:11:10;;;;;;;5.20;3.80;;;;;;;;;;4941250;29;20047;-78
2023/04/18 11:13:56;;;;;;;2.33;1.73;;;;;;;;;;4956174;29;20043;-79
2023/04/18 11:16:42;;;;;;;3.90;2.63;;;;;;;;;;4956138;29;20052;-79
2023/04/18 11:19:27;;;;;;;3.90;2.03;;;;;;;;;;4956229;29;20055;-77
2023/04/18 11:22:14;;;;;;;3.03;2.30;;;;;;;;;;4956528;29;20509;-81
2023/04/18 11:25:05;;;;;;;3.75;2.33;;;;;;;;;;4955730;29;20047;-78
2023/04/18 11:27:56;;;;;;;2.30;1.63;;;;;;;;;;4956120;29;20051;-77
2023/04/18 11:30:43;;;;;;;2.80;1.90;;;;;;;;;;4955714;29;20051;-75
2023/04/18 11:33:28;;;;;;;3.75;3.13;;;;;;;;;;4955826;29;20409;-77
2023/04/18 11:36:15;;;;;;;3.47;2.10;;;;;;;;;;4955782;29;20039;-77
2023/04/18 11:39:00;;;;;;;4.10;2.05;;;;;;;;;;4953122;29;20051;-76
2023/04/18 11:41:51;;;;;;;3.80;3.00;;;;;;;;;;4939458;29;20047;-78
2023/04/18 11:44:38;;;;;;;3.10;2.33;;;;;;;;;;4945004;28;20081;-75
2023/04/18 11:47:28;;;;;;;2.58;2.15;;;;;;;;;;4953700;29;20051;-77
2023/04/18 11:50:13;;;;;;;5.07;2.70;;;;;;;;;;4954575;29;20055;-77
2023/04/18 11:52:59;;;;;;;3.85;2.97;;;;;;;;;;4954609;29;20039;-77
2023/04/18 11:55:54;;;;;;;4.80;1.80;;;;;;;;;;4954895;29;20065;-77
2023/04/18 11:58:39;;;;;;;3.67;2.33;;;;;;;;;;4953363;29;20051;-77
2023/04/18 12:01:26;;;;;;;3.05;2.47;;;;;;;;;;4954019;29;20481;-78
2023/04/18 12:04:10;;;;;;;7.57;4.88;;;;;;;;;;4955019;29;20417;-77
2023/04/18 12:06:57;;;;;;;2.55;1.75;;;;;;;;;;4954184;29;20051;-77
2023/04/18 12:09:43;;;;;;;3.60;2.20;;;;;;;;;;4954330;29;20486;-78
2023/04/18 12:12:28;;;;;;;3.58;2.10;;;;;;;;;;4955453;29;20039;-78
2023/04/18 12:15:15;;;;;;;2.45;1.70;;;;;;;;;;4941015;29;20513;-77
2023/04/18 12:18:03;;;;;;;2.22;1.60;;;;;;;;;;4955347;29;20039;-77
2023/04/18 12:20:50;;;;;;;3.00;2.70;;;;;;;;;;4955475;29;20055;-77
2023/04/18 12:23:39;;;;;;;4.18;3.13;;;;;;;;;;4955388;28;20401;-77
2023/04/18 12:26:26;;;;;;;3.50;2.10;;;;;;;;;;4955634;29;20048;-77
2023/04/18 12:29:10;;;;;;;2.35;1.60;;;;;;;;;;4947320;29;20043;-79
2023/04/18 12:31:56;;;;;;;2.70;1.70;;;;;;;;;;4955343;29;20393;-77
2023/04/18 12:34:42;;;;;;;3.85;1.73;;;;;;;;;;4955578;29;20497;-77
2023/04/18 12:37:27;;;;;;;2.67;2.00;;;;;;;;;;4955193;29;20477;-77
2023/04/18 12:40:13;;;;;;;5.40;2.83;;;;;;;;;;4955519;29;20393;-77
2023/04/18 12:42:58;;;;;;;4.28;2.70;;;;;;;;;;4955109;29;20044;-78
2023/04/18 12:45:45;;;;;;;5.93;2.10;;;;;;;;;;4955441;29;20492;-77
2023/04/18 12:48:31;;;;;;;9.10;4.90;;;;;;;;;;4955553;29;20043;-78
2023/04/18 12:51:16;;;;;;;2.35;1.50;;;;;;;;;;4955451;29;20039;-77
2023/04/18 12:54:02;;;;;;;3.05;2.28;;;;;;;;;;4955434;29;20397;-78
2023/04/18 12:56:48;;;;;;;9.88;6.90;;;;;;;;;;4955143;29;20051;-77
2023/04/18 12:59:33;;;;;;;6.93;5.10;;;;;;;;;;4954934;29;20063;-77
2023/04/18 13:02:19;;;;;;;4.25;2.97;;;;;;;;;;4955448;28;20051;-77
2023/04/18 13:05:07;;;;;;;2.33;1.83;;;;;;;;;;4958389;29;20047;-77
2023/04/18 13:07:53;;;;;;;1.77;1.30;;;;;;;;;;4958383;29;20043;-76
2023/04/18 13:10:39;;;;;;;2.63;1.80;;;;;;;;;;4958745;29;20043;-78
2023/04/18 13:13:25;;;;;;;3.53;2.22;;;;;;;;;;4958526;29;20039;-78
2023/04/18 13:16:11;;;;;;;6.47;2.10;;;;;;;;;;4958809;29;20048;-78
2023/04/18 13:18:56;;;;;;;5.45;2.33;;;;;;;;;;4957977;29;20048;-78
2023/04/18 13:21:43;;;;;;;20.45;15.77;;;;;;;;;;4958210;29;20058;-77
2023/04/18 13:24:28;;;;;;;30.98;19.08;;;;;;;;;;4957787;29;20051;-77
2023/04/18 13:27:14;;;;;;;25.90;17.73;;;;;;;;;;4958434;29;20047;-78
2023/04/18 13:30:00;;;;;;;13.35;8.95;;;;;;;;;;4958238;29;20039;-77
2023/04/18 13:32:45;;;;;;;12.23;9.02;;;;;;;;;;4957716;29;20047;-77
2023/04/18 13:35:31;;;;;;;15.27;10.05;;;;;;;;;;4958110;29;20039;-77
2023/04/18 13:38:16;;;;;;;16.52;11.13;;;;;;;;;;4958049;29;20047;-78
2023/04/18 13:41:02;;;;;;;8.02;5.00;;;;;;;;;;4957929;29;20051;-77
2023/04/18 13:43:48;;;;;;;14.80;10.68;;;;;;;;;;4957806;29;20046;-78
2023/04/18 13:46:33;;;;;;;14.18;9.65;;;;;;;;;;4957764;29;20061;-78
2023/04/18 13:49:19;;;;;;;8.55;6.32;;;;;;;;;;4957569;29;20401;-77
2023/04/18 13:52:04;;;;;;;10.45;6.88;;;;;;;;;;4958016;29;20039;-79
2023/04/18 13:54:50;;;;;;;16.08;11.95;;;;;;;;;;4957692;29;20485;-77
2023/04/18 13:57:36;;;;;;;103.07;52.60;;;;;;;;;;4957406;29;20039;-77
2023/04/18 14:00:21;;;;;;;21.63;15.27;;;;;;;;;;4943037;29;20055;-78
2023/04/18 14:03:06;;;;;;;13.98;8.55;;;;;;;;;;4957715;29;20047;-78
2023/04/18 14:05:52;;;;;;;5.28;4.55;;;;;;;;;;4956720;29;20055;-78
2023/04/18 14:08:39;;;;;;;15.80;9.95;;;;;;;;;;4957081;29;20055;-77
2023/04/18 14:11:24;;;;;;;12.05;8.25;;;;;;;;;;4957212;29;20054;-77
2023/04/18 14:14:10;;;;;;;12.77;9.30;;;;;;;;;;4956784;28;20055;-78
2023/04/18 14:16:56;;;;;;;13.50;8.77;;;;;;;;;;4956915;29;20043;-77
2023/04/18 14:19:41;;;;;;;15.82;7.15;;;;;;;;;;4957459;29;20047;-77
2023/04/18 14:22:27;;;;;;;7.63;5.20;;;;;;;;;;4956957;29;20051;-77
2023/04/18 14:25:13;;;;;;;16.88;8.73;;;;;;;;;;4956868;29;20489;-79
2023/04/18 14:28:08;;;;;;;18.02;9.05;;;;;;;;;;4956696;29;20047;-76
2023/04/18 14:30:56;;;;;;;15.57;11.93;;;;;;;;;;4957161;29;20047;-78
2023/04/18 14:33:41;;;;;;;8.95;7.28;;;;;;;;;;4957274;29;20051;-80
2023/04/18 14:36:27;;;;;;;5.95;4.97;;;;;;;;;;4957535;29;20051;-77
2023/04/18 14:39:12;;;;;;;8.23;6.50;;;;;;;;;;4957375;29;20043;-78
2023/04/18 14:41:58;;;;;;;5.05;3.58;;;;;;;;;;4956525;29;20047;-78
2023/04/18 14:44:43;;;;;;;15.77;8.55;;;;;;;;;;4956531;29;20485;-77
2023/04/18 14:47:30;;;;;;;24.23;13.55;;;;;;;;;;4955362;29;20051;-76
2023/04/18 14:50:16;;;;;;;19.98;10.90;;;;;;;;;;4956900;29;20051;-77
2023/04/18 14:53:02;;;;;;;6.93;4.82;;;;;;;;;;4956636;29;20043;-77
2023/04/18 14:55:46;;;;;;;12.02;8.73;;;;;;;;;;4956730;29;20039;-77
2023/04/18 14:58:32;;;;;;;18.35;10.45;;;;;;;;;;4956668;29;20051;-77
2023/04/18 15:01:18;;;;;;;9.38;6.03;;;;;;;;;;4956694;29;20035;-78
2023/04/18 15:04:04;;;;;;;7.78;4.20;;;;;;;;;;4956769;29;20047;-76
2023/04/18 15:06:49;;;;;;;2.15;1.85;;;;;;;;;;4956122;29;20043;-77
2023/04/18 15:09:36;;;;;;;3.72;2.45;;;;;;;;;;4956515;29;20051;-78
2023/04/18 15:12:21;;;;;;;28.30;13.60;;;;;;;;;;4941781;29;20054;-79
2023/04/18 15:15:07;;;;;;;51.50;22.27;;;;;;;;;;4956667;29;20050;-76
2023/04/18 15:17:53;;;;;;;19.08;9.60;;;;;;;;;;4942054;29;20409;-78
2023/04/18 15:20:39;;;;;;;61.70;24.27;;;;;;;;;;4956157;29;20484;-77
2023/04/18 15:23:24;;;;;;;18.38;10.30;;;;;;;;;;4956079;29;20429;-77
2023/04/18 15:26:10;;;;;;;13.52;9.05;;;;;;;;;;4956439;28;20047;-77
2023/04/18 15:28:55;;;;;;;12.07;6.53;;;;;;;;;;4955268;29;20043;-76
2023/04/18 15:31:41;;;;;;;13.35;6.93;;;;;;;;;;4956444;29;20047;-77
2023/04/18 15:34:27;;;;;;;15.38;7.75;;;;;;;;;;4956004;29;20051;-75
2023/04/18 15:37:12;;;;;;;44.65;20.33;;;;;;;;;;4956106;29;20043;-78
2023/04/18 15:39:58;;;;;;;24.63;12.38;;;;;;;;;;4955545;29;20482;-77
2023/04/18 15:42:44;;;;;;;11.60;6.15;;;;;;;;;;4962267;28;20047;-76
2023/04/18 15:45:30;;;;;;;6.70;4.45;;;;;;;;;;4955890;29;20473;-77
2023/04/18 15:48:16;;;;;;;8.80;5.43;;;;;;;;;;4955131;29;21014;-77
2023/04/18 15:51:02;;;;;;;10.98;7.50;;;;;;;;;;4955812;29;20083;-75
2023/04/18 15:53:48;;;;;;;17.42;10.80;;;;;;;;;;4955565;29;20047;-78
2023/04/18 15:56:35;;;;;;;33.10;18.67;;;;;;;;;;4955620;29;20055;-78
2023/04/18 15:59:20;;;;;;;27.73;14.77;;;;;;;;;;4955592;29;20489;-76
2023/04/18 16:02:07;;;;;;;27.05;14.05;;;;;;;;;;4955522;29;20059;-77
2023/04/18 16:04:53;;;;;;;36.78;16.95;;;;;;;;;;4955529;29;20051;-79
2023/04/18 16:07:40;;;;;;;33.60;20.58;;;;;;;;;;4955440;29;20043;-78
2023/04/18 16:10:26;;;;;;;13.25;8.48;;;;;;;;;;4955319;29;20055;-78
2023/04/18 16:13:11;;;;;;;10.55;6.43;;;;;;;;;;4955565;29;20043;-77
2023/04/18 16:15:57;;;;;;;97.75;44.20;;;;;;;;;;4955390;29;20051;-77
2023/04/18 16:18:42;;;;;;;104.03;38.70;;;;;;;;;;4955430;29;20389;-77
2023/04/18 16:21:28;;;;;;;68.78;29.05;;;;;;;;;;4940767;29;20059;-77
2023/04/18 16:24:14;;;;;;;74.28;27.85;;;;;;;;;;4955264;29;20043;-77
2023/04/18 16:27:00;;;;;;;90.78;33.92;;;;;;;;;;4955418;29;20054;-77
2023/04/18 16:29:46;;;;;;;262.85;97.22;;;;;;;;;;4955088;29;20051;-77
2023/04/18 16:32:31;;;;;;;196.35;73.97;;;;;;;;;;4955794;29;20039;-76
2023/04/18 16:35:17;;;;;;;36.83;19.27;;;;;;;;;;4955336;29;20047;-76